Time;durP1;ratioP1;P1;durP2;ratioP2;P2;SDS_P1;SDS_P2;PMS_P1;PMS_P2;Temp;Humidity;BMP_temperature;BMP_pressure;BME280_temperature;BME280_humidity;BME280_pressure;Samples;Min_cycle;Max_cycle;Signal;HPM_P1;HPM_P2
2022/10/20 03:58:39;;;;;;;;;;;21.90;99.90;;;;;;6093610;22;20769;-82
2022/10/20 04:01:08;;;;;;;;;;;21.90;99.90;;;;;;5038443;28;20008;-81
2022/10/20 04:03:34;;;;;;;;;;;21.90;99.90;;;;;;5037671;28;19926;-81
2022/10/20 04:06:01;;;;;;;;;;;21.80;99.90;;;;;;5036937;28;20020;-82
2022/10/20 04:08:28;;;;;;;;;;;21.90;99.90;;;;;;5036819;28;20024;-81
2022/10/20 04:10:54;;;;;;;;;;;21.90;99.90;;;;;;5036728;28;20016;-81
2022/10/20 04:13:21;;;;;;;;;;;21.80;99.90;;;;;;5040339;28;20012;-82
2022/10/20 04:15:49;;;;;;;;;;;21.90;99.90;;;;;;5047670;28;19956;-80
2022/10/20 04:18:16;;;;;;;;;;;21.90;99.90;;;;;;5044444;28;19960;-82
2022/10/20 04:20:42;;;;;;;;;;;21.80;99.90;;;;;;5041545;28;19964;-83
2022/10/20 04:23:09;;;;;;;;;;;21.80;99.90;;;;;;5040210;28;20023;-83
2022/10/20 04:25:39;;;;;;;;;;;21.90;99.90;;;;;;5040253;28;20007;-83
2022/10/20 04:28:05;;;;;;;;;;;21.90;99.90;;;;;;5042772;28;20015;-83
2022/10/20 04:30:32;;;;;;;;;;;21.90;99.90;;;;;;5039577;28;19967;-83
2022/10/20 04:33:00;;;;;;;;;;;21.90;99.90;;;;;;5038737;28;20087;-83
2022/10/20 04:35:27;;;;;;;;;;;21.80;99.90;;;;;;5038678;28;20345;-82
2022/10/20 04:37:54;;;;;;;;;;;21.90;99.90;;;;;;5039705;28;19976;-81
2022/10/20 04:40:20;;;;;;;;;;;21.90;99.90;;;;;;5039974;28;19977;-82
2022/10/20 04:42:47;;;;;;;;;;;21.80;99.90;;;;;;5036988;28;20356;-83
2022/10/20 04:45:14;;;;;;;;;;;21.90;99.90;;;;;;5036101;28;19972;-83
2022/10/20 04:47:41;;;;;;;;;;;21.90;99.90;;;;;;5036393;28;20112;-83
2022/10/20 04:50:09;;;;;;;;;;;21.90;99.90;;;;;;5036357;28;20015;-83
2022/10/20 04:52:36;;;;;;;;;;;21.90;99.90;;;;;;5036492;28;19965;-85
2022/10/20 04:55:02;;;;;;;;;;;22.00;99.90;;;;;;5036586;28;20016;-83
2022/10/20 04:57:29;;;;;;;;;;;22.00;99.90;;;;;;5036844;28;19991;-84
2022/10/20 04:59:56;;;;;;;;;;;21.90;99.90;;;;;;5036022;28;19972;-81
2022/10/20 05:02:23;;;;;;;;;;;22.00;99.90;;;;;;5045003;28;19972;-81
2022/10/20 05:04:50;;;;;;;;;;;22.00;99.90;;;;;;5043131;28;19936;-82
2022/10/20 05:07:18;;;;;;;;;;;22.00;99.90;;;;;;5040051;28;20020;-82
2022/10/20 10:17:35;;;;;;;;;;;21.70;99.90;;;;;;5417378;22;19964;-78
2022/10/20 10:20:04;;;;;;;;;;;21.70;99.90;;;;;;5057287;28;19979;-78
2022/10/20 10:22:31;;;;;;;;;;;21.70;99.90;;;;;;5056132;28;20309;-78
2022/10/20 10:24:57;;;;;;;;;;;21.70;99.90;;;;;;5056717;28;19974;-78
2022/10/20 10:27:25;;;;;;;;;;;21.70;99.90;;;;;;5055620;28;20454;-78
2022/10/20 10:29:52;;;;;;;;;;;21.70;99.90;;;;;;5056451;28;19960;-78
2022/10/20 10:32:23;;;;;;;;;;;21.70;99.90;;;;;;5080226;22;20015;-81
2022/10/20 10:34:58;;;;;;;;;;;21.70;99.90;;;;;;5058037;28;19963;-81
2022/10/20 10:37:25;;;;;;;;;;;21.70;99.90;;;;;;5058780;28;19971;-80
2022/10/20 10:39:52;;;;;;;;;;;21.70;99.90;;;;;;5058121;28;20027;-80
2022/10/20 10:42:27;;;;;;;;;;;21.70;99.90;;;;;;5059385;28;20019;-80
2022/10/20 10:44:57;;;;;;;;;;;21.80;99.90;;;;;;5060464;28;19976;-80
2022/10/20 10:47:30;;;;;;;;;;;21.80;99.90;;;;;;5060784;28;19956;-80
2022/10/20 10:50:02;;;;;;;;;;;21.80;99.90;;;;;;5060358;28;19979;-80
2022/10/20 10:52:36;;;;;;;;;;;21.80;99.90;;;;;;5057341;28;20015;-80
2022/10/20 10:55:10;;;;;;;;;;;21.80;99.90;;;;;;5059992;28;20019;-80
2022/10/20 10:57:46;;;;;;;;;;;21.90;99.90;;;;;;5060336;28;19968;-80
2022/10/20 11:00:17;;;;;;;;;;;21.80;99.90;;;;;;5065299;28;20368;-80
2022/10/20 11:02:59;;;;;;;;;;;21.90;99.90;;;;;;5064815;28;20011;-81
2022/10/20 11:05:45;;;;;;;;;;;21.90;99.90;;;;;;5063752;28;19924;-81
2022/10/20 11:08:19;;;;;;;;;;;21.90;99.90;;;;;;5066151;28;20388;-83
2022/10/20 11:10:48;;;;;;;;;;;21.90;99.90;;;;;;5064561;28;19974;-82
2022/10/20 11:13:19;;;;;;;;;;;21.90;99.90;;;;;;5067073;28;19955;-82
2022/10/20 11:15:51;;;;;;;;;;;21.90;99.90;;;;;;5064213;28;20023;-82
2022/10/20 11:18:25;;;;;;;;;;;21.90;99.90;;;;;;5061771;28;19984;-83
2022/10/20 11:20:56;;;;;;;;;;;22.00;99.90;;;;;;5060717;28;19971;-83
2022/10/20 11:23:50;;;;;;;;;;;22.00;99.90;;;;;;5059382;28;19967;-83
2022/10/20 11:26:22;;;;;;;;;;;22.00;99.90;;;;;;5059511;28;20020;-83
2022/10/20 11:28:50;;;;;;;;;;;22.00;99.90;;;;;;5062415;28;19952;-82
2022/10/20 11:31:20;;;;;;;;;;;22.00;99.90;;;;;;5062611;28;19963;-84
2022/10/20 11:33:51;;;;;;;;;;;22.00;99.90;;;;;;5063046;28;19925;-80
2022/10/20 11:36:19;;;;;;;;;;;22.00;99.90;;;;;;5062655;28;19960;-82
2022/10/20 11:38:49;;;;;;;;;;;22.00;99.90;;;;;;5063710;28;19932;-82
2022/10/20 11:41:18;;;;;;;;;;;22.00;99.90;;;;;;5064570;28;20296;-82
2022/10/20 11:43:47;;;;;;;;;;;22.00;99.90;;;;;;5064169;28;20372;-82
2022/10/20 11:46:16;;;;;;;;;;;22.00;99.90;;;;;;5063078;28;19925;-82
2022/10/20 11:48:45;;;;;;;;;;;22.00;99.90;;;;;;5063847;28;19972;-82
2022/10/20 11:51:33;;;;;;;;;;;22.00;99.90;;;;;;5062493;28;20468;-82
2022/10/20 11:54:09;;;;;;;;;;;22.00;99.90;;;;;;5036510;28;20015;-82
2022/10/20 11:56:48;;;;;;;;;;;22.00;99.90;;;;;;5063186;28;19974;-80
2022/10/20 11:59:33;;;;;;;;;;;22.00;99.90;;;;;;5063041;28;20007;-80
2022/10/20 12:02:11;;;;;;;;;;;22.00;99.90;;;;;;5062324;28;19925;-79
2022/10/20 12:04:53;;;;;;;;;;;22.00;99.90;;;;;;5058308;28;19964;-79
2022/10/20 12:07:37;;;;;;;;;;;21.90;99.90;;;;;;5055321;28;20273;-80
2022/10/20 12:10:21;;;;;;;;;;;21.90;99.90;;;;;;5056363;28;19931;-80
2022/10/20 12:12:51;;;;;;;;;;;22.00;99.90;;;;;;5056724;28;19924;-80
2022/10/20 12:15:19;;;;;;;;;;;21.90;99.90;;;;;;5056709;28;19929;-81
2022/10/20 12:17:46;;;;;;;;;;;21.90;99.90;;;;;;5057199;28;19984;-82
2022/10/20 12:20:31;;;;;;;;;;;21.90;99.90;;;;;;5057571;28;20012;-81
2022/10/20 12:23:00;;;;;;;;;;;21.90;99.90;;;;;;5057697;28;19964;-81
2022/10/20 12:25:39;;;;;;;;;;;21.90;99.90;;;;;;5057394;28;19925;-82
2022/10/20 12:28:26;;;;;;;;;;;21.90;99.90;;;;;;5057547;28;20040;-81
2022/10/20 12:30:56;;;;;;;;;;;21.90;99.90;;;;;;5056675;28;19925;-81
2022/10/20 12:33:35;;;;;;;;;;;21.90;99.90;;;;;;5056564;28;19925;-81
2022/10/20 12:36:23;;;;;;;;;;;21.90;99.90;;;;;;5056069;28;19929;-81
2022/10/20 12:38:53;;;;;;;;;;;21.90;99.90;;;;;;5056004;28;20299;-81
2022/10/20 12:41:32;;;;;;;;;;;21.90;99.90;;;;;;5056743;28;19924;-80
2022/10/20 12:44:00;;;;;;;;;;;22.00;99.90;;;;;;5056880;28;19928;-81
2022/10/20 12:46:30;;;;;;;;;;;22.00;99.90;;;;;;5056689;28;19925;-81
2022/10/20 12:49:00;;;;;;;;;;;22.00;99.90;;;;;;5061213;28;19939;-79
2022/10/20 12:51:35;;;;;;;;;;;22.00;99.90;;;;;;5059534;28;19925;-79
2022/10/20 12:54:13;;;;;;;;;;;22.00;99.90;;;;;;5059682;28;20342;-79
2022/10/20 12:56:41;;;;;;;;;;;22.00;99.90;;;;;;5060899;28;19924;-80
2022/10/20 12:59:19;;;;;;;;;;;22.00;99.90;;;;;;5066060;28;19971;-80
2022/10/20 13:02:05;;;;;;;;;;;22.00;99.90;;;;;;5065695;28;19932;-81
2022/10/20 13:04:46;;;;;;;;;;;22.00;99.90;;;;;;5066003;28;19967;-81
2022/10/20 13:07:13;;;;;;;;;;;22.00;99.90;;;;;;5063669;28;19967;-80
2022/10/20 13:09:54;;;;;;;;;;;22.00;99.90;;;;;;5065467;28;19960;-80
2022/10/20 13:12:27;;;;;;;;;;;22.00;99.90;;;;;;5065336;28;19967;-80
2022/10/20 13:14:56;;;;;;;;;;;22.00;99.90;;;;;;5064854;28;19948;-81
2022/10/20 13:17:26;;;;;;;;;;;22.00;99.90;;;;;;5065004;28;19952;-81
2022/10/20 13:19:56;;;;;;;;;;;22.00;99.90;;;;;;5064293;28;19931;-80
2022/10/20 13:22:41;;;;;;;;;;;22.00;99.90;;;;;;5065516;28;20360;-81
2022/10/20 13:25:26;;;;;;;;;;;22.00;99.90;;;;;;5055350;28;19929;-80
2022/10/20 13:28:02;;;;;;;;;;;21.90;99.90;;;;;;5061228;28;19964;-80
2022/10/20 13:33:18;;;;;;;;;;;22.00;99.90;;;;;;5062083;28;20268;-82
2022/10/20 13:35:51;;;;;;;;;;;21.90;99.90;;;;;;5061286;28;19925;-80
2022/10/20 13:38:21;;;;;;;;;;;21.90;99.90;;;;;;5063699;28;19924;-80
2022/10/20 13:40:54;;;;;;;;;;;21.90;99.90;;;;;;5061989;28;19925;-80
2022/10/20 13:43:38;;;;;;;;;;;22.00;99.90;;;;;;5061295;28;20395;-80
2022/10/20 13:46:22;;;;;;;;;;;22.00;99.90;;;;;;5063481;28;19959;-80
2022/10/20 13:48:57;;;;;;;;;;;22.00;99.90;;;;;;5061812;28;19929;-80
2022/10/20 13:51:25;;;;;;;;;;;22.00;99.90;;;;;;5061355;28;19932;-79
2022/10/20 13:53:55;;;;;;;;;;;22.00;99.90;;;;;;5062869;28;19933;-80
2022/10/20 13:56:35;;;;;;;;;;;22.00;99.90;;;;;;5060368;28;20304;-80
2022/10/20 13:59:08;;;;;;;;;;;22.00;99.90;;;;;;5060217;28;20008;-80
2022/10/20 14:01:37;;;;;;;;;;;22.00;99.90;;;;;;5056471;28;19975;-80
2022/10/20 14:04:19;;;;;;;;;;;22.00;99.90;;;;;;5060790;28;19924;-80
2022/10/20 14:06:53;;;;;;;;;;;22.00;99.90;;;;;;5060318;28;19932;-83
2022/10/20 14:09:21;;;;;;;;;;;22.00;99.90;;;;;;5061801;28;19992;-80
2022/10/20 14:11:51;;;;;;;;;;;22.00;99.90;;;;;;5059706;28;19991;-80
2022/10/20 14:14:22;;;;;;;;;;;22.00;99.90;;;;;;5057557;28;19931;-80
2022/10/20 14:16:52;;;;;;;;;;;22.00;99.90;;;;;;5058624;28;20025;-82
2022/10/20 14:19:22;;;;;;;;;;;22.00;99.90;;;;;;5059618;28;19977;-82
2022/10/20 14:21:53;;;;;;;;;;;22.00;99.90;;;;;;5060702;28;19947;-82
2022/10/20 14:24:24;;;;;;;;;;;22.00;99.90;;;;;;5058563;28;19955;-80
2022/10/20 14:26:51;;;;;;;;;;;22.00;99.90;;;;;;5059561;28;19929;-82
2022/10/20 14:29:20;;;;;;;;;;;22.00;99.90;;;;;;5056020;28;19925;-82
2022/10/20 14:31:59;;;;;;;;;;;22.00;99.90;;;;;;5054473;28;19929;-82
2022/10/20 14:34:28;;;;;;;;;;;22.00;99.90;;;;;;5057361;28;19925;-82
2022/10/20 14:36:56;;;;;;;;;;;22.00;99.90;;;;;;5059770;28;19925;-81
2022/10/20 14:39:37;;;;;;;;;;;22.00;99.90;;;;;;5061877;28;20359;-82
2022/10/20 14:42:06;;;;;;;;;;;22.00;99.90;;;;;;5060404;28;19925;-82
2022/10/20 14:44:36;;;;;;;;;;;22.00;99.90;;;;;;5058911;28;19978;-80
2022/10/20 14:47:05;;;;;;;;;;;22.00;99.90;;;;;;5059976;28;19978;-80
2022/10/20 14:49:35;;;;;;;;;;;22.10;99.90;;;;;;5059994;28;19929;-80
2022/10/20 14:52:05;;;;;;;;;;;22.10;99.90;;;;;;5060381;28;20436;-82
2022/10/20 14:54:34;;;;;;;;;;;22.10;99.90;;;;;;5060592;28;20307;-80
2022/10/20 14:57:02;;;;;;;;;;;22.10;99.90;;;;;;5064417;28;20372;-81
2022/10/20 14:59:33;;;;;;;;;;;22.10;99.90;;;;;;5061292;28;19956;-82
2022/10/20 15:02:08;;;;;;;;;;;22.10;99.90;;;;;;5062216;28;20287;-83
2022/10/20 15:04:40;;;;;;;;;;;22.10;99.90;;;;;;5061852;28;19932;-82
2022/10/20 15:07:21;;;;;;;;;;;22.10;99.90;;;;;;5058578;28;20399;-82
2022/10/20 15:09:49;;;;;;;;;;;22.10;99.90;;;;;;5059684;28;19968;-81
2022/10/20 15:12:18;;;;;;;;;;;22.10;99.90;;;;;;5057385;28;20350;-81
2022/10/20 15:14:50;;;;;;;;;;;22.10;99.90;;;;;;5062593;28;19931;-82
2022/10/20 15:17:40;;;;;;;;;;;22.10;99.90;;;;;;5066663;28;19925;-84
2022/10/20 15:20:27;;;;;;;;;;;22.10;99.90;;;;;;5067550;28;20011;-81
2022/10/20 15:22:58;;;;;;;;;;;22.10;99.90;;;;;;5063752;28;19932;-82
2022/10/20 15:25:30;;;;;;;;;;;22.10;99.90;;;;;;5058911;28;19924;-82
2022/10/20 15:27:57;;;;;;;;;;;22.10;99.90;;;;;;5059707;28;20406;-83
2022/10/20 15:30:25;;;;;;;;;;;22.10;99.90;;;;;;5059432;28;19925;-83
2022/10/20 15:32:53;;;;;;;;;;;22.10;99.90;;;;;;5062391;28;19987;-83
2022/10/20 15:35:22;;;;;;;;;;;22.10;99.90;;;;;;5061841;28;19979;-84
2022/10/20 15:37:50;;;;;;;;;;;22.10;99.90;;;;;;5061229;28;19925;-82
2022/10/20 15:40:18;;;;;;;;;;;22.10;99.90;;;;;;5062859;28;20024;-82
2022/10/20 15:42:45;;;;;;;;;;;22.10;99.90;;;;;;5060664;28;19952;-82
2022/10/20 15:45:14;;;;;;;;;;;22.10;99.90;;;;;;5059122;28;20015;-81
2022/10/20 15:47:41;;;;;;;;;;;22.10;99.90;;;;;;5060756;28;19975;-82
2022/10/20 15:50:08;;;;;;;;;;;22.10;99.90;;;;;;5061936;28;20009;-82
2022/10/20 15:52:36;;;;;;;;;;;22.10;99.90;;;;;;5062069;28;19968;-82
2022/10/20 15:55:13;;;;;;;;;;;22.10;99.90;;;;;;5059608;28;19935;-81
2022/10/20 15:57:41;;;;;;;;;;;22.10;99.90;;;;;;5059641;28;19929;-82
2022/10/20 16:00:08;;;;;;;;;;;22.10;99.90;;;;;;5060124;28;20016;-81
2022/10/20 16:02:35;;;;;;;;;;;22.10;99.90;;;;;;5059918;28;19964;-81
2022/10/20 16:05:02;;;;;;;;;;;22.10;99.90;;;;;;5060451;28;19968;-82
2022/10/20 16:07:28;;;;;;;;;;;22.10;99.90;;;;;;5061570;28;20341;-83
2022/10/20 16:09:55;;;;;;;;;;;22.10;99.90;;;;;;5060172;28;20347;-82
2022/10/20 16:12:21;;;;;;;;;;;22.10;99.90;;;;;;5058461;28;20019;-80
2022/10/20 16:14:50;;;;;;;;;;;22.10;99.90;;;;;;5064531;28;19964;-80
2022/10/20 16:17:16;;;;;;;;;;;22.10;99.90;;;;;;5058191;28;20035;-81
2022/10/20 16:19:43;;;;;;;;;;;22.10;99.90;;;;;;5058060;28;20027;-80
2022/10/20 16:22:10;;;;;;;;;;;22.00;99.90;;;;;;5059529;28;20019;-79
2022/10/20 16:24:36;;;;;;;;;;;22.10;99.90;;;;;;5057578;28;19924;-79
2022/10/20 16:27:04;;;;;;;;;;;22.00;99.90;;;;;;5058557;28;20024;-80
2022/10/20 16:29:31;;;;;;;;;;;22.10;99.90;;;;;;5057607;28;19925;-80
2022/10/20 16:31:59;;;;;;;;;;;22.10;99.90;;;;;;5057370;28;19947;-80
2022/10/20 16:34:27;;;;;;;;;;;22.10;99.90;;;;;;5057046;28;20012;-80
2022/10/20 16:36:54;;;;;;;;;;;22.10;99.90;;;;;;5056842;28;20027;-80
2022/10/20 16:39:20;;;;;;;;;;;22.00;99.90;;;;;;5057015;28;19956;-80
2022/10/20 16:41:47;;;;;;;;;;;22.00;99.90;;;;;;5056669;28;20023;-80
2022/10/20 16:44:14;;;;;;;;;;;22.00;99.90;;;;;;5056528;28;20024;-81
2022/10/20 16:46:41;;;;;;;;;;;22.00;99.90;;;;;;5056534;28;20023;-80
2022/10/20 16:49:09;;;;;;;;;;;22.10;99.90;;;;;;5056471;28;19991;-80
2022/10/20 16:51:36;;;;;;;;;;;22.00;99.90;;;;;;5056580;28;20011;-80
2022/10/20 16:54:03;;;;;;;;;;;22.00;99.90;;;;;;5056252;28;20015;-80
2022/10/20 16:56:29;;;;;;;;;;;22.00;99.90;;;;;;5056476;28;19933;-81
2022/10/20 16:58:56;;;;;;;;;;;22.00;99.90;;;;;;5057807;28;20296;-83
2022/10/20 17:01:23;;;;;;;;;;;22.00;99.90;;;;;;5060757;28;19925;-84
2022/10/20 17:03:50;;;;;;;;;;;22.00;99.90;;;;;;5060337;28;19967;-84
2022/10/20 17:06:19;;;;;;;;;;;22.00;99.90;;;;;;5060092;28;19964;-83
2022/10/20 17:08:46;;;;;;;;;;;22.10;99.90;;;;;;5059724;28;19988;-83
2022/10/20 17:11:13;;;;;;;;;;;22.00;99.90;;;;;;5060479;28;20360;-82
2022/10/20 17:13:40;;;;;;;;;;;22.00;99.90;;;;;;5061855;28;19972;-82
2022/10/20 17:16:09;;;;;;;;;;;22.00;99.90;;;;;;5061314;28;19975;-82
2022/10/20 17:18:36;;;;;;;;;;;22.00;99.90;;;;;;5060900;28;19979;-85
2022/10/20 17:21:03;;;;;;;;;;;22.00;99.90;;;;;;5056430;28;19984;-84
2022/10/20 17:23:32;;;;;;;;;;;22.10;99.90;;;;;;5058491;28;20412;-82
2022/10/20 17:26:01;;;;;;;;;;;22.00;99.90;;;;;;5057389;28;20008;-84
2022/10/20 17:28:27;;;;;;;;;;;22.00;99.90;;;;;;5056925;28;19988;-85
2022/10/20 17:30:56;;;;;;;;;;;22.10;99.90;;;;;;5056119;28;20351;-82
2022/10/20 17:33:23;;;;;;;;;;;22.10;99.90;;;;;;5055872;28;19979;-85
2022/10/20 17:35:50;;;;;;;;;;;22.10;99.90;;;;;;5055102;28;20127;-87
2022/10/20 17:38:17;;;;;;;;;;;22.10;99.90;;;;;;5054879;28;19972;-86
2022/10/20 17:40:45;;;;;;;;;;;22.10;99.90;;;;;;5056013;28;20015;-86
2022/10/20 17:43:12;;;;;;;;;;;22.10;99.90;;;;;;5056980;28;19975;-84
2022/10/20 17:45:38;;;;;;;;;;;22.10;99.90;;;;;;5057008;28;20007;-85
2022/10/20 17:48:05;;;;;;;;;;;22.10;99.90;;;;;;5058914;28;19925;-86
2022/10/20 17:50:32;;;;;;;;;;;22.10;99.90;;;;;;5060759;28;19952;-87
2022/10/20 17:52:59;;;;;;;;;;;22.10;99.90;;;;;;5056386;28;20023;-86
2022/10/20 17:55:26;;;;;;;;;;;22.10;99.90;;;;;;5058192;28;19947;-86
2022/10/20 17:57:54;;;;;;;;;;;22.10;99.90;;;;;;5058070;28;19959;-86
2022/10/20 18:00:21;;;;;;;;;;;22.10;99.90;;;;;;5057987;28;20062;-86
2022/10/20 18:02:48;;;;;;;;;;;22.10;99.90;;;;;;5057635;28;20376;-86
2022/10/20 18:05:14;;;;;;;;;;;22.10;99.90;;;;;;5058098;28;19978;-85
2022/10/20 18:07:41;;;;;;;;;;;22.10;99.90;;;;;;5057866;28;19964;-85
2022/10/20 18:10:08;;;;;;;;;;;22.10;99.90;;;;;;5057340;28;19976;-86
2022/10/20 18:12:35;;;;;;;;;;;22.10;99.90;;;;;;5056936;28;19963;-86
2022/10/20 18:15:04;;;;;;;;;;;22.10;99.90;;;;;;5057718;28;20338;-85
2022/10/20 18:17:30;;;;;;;;;;;22.10;99.90;;;;;;5056979;28;20411;-85
2022/10/20 18:19:58;;;;;;;;;;;22.10;99.90;;;;;;5057663;28;19952;-85
2022/10/20 18:22:25;;;;;;;;;;;22.10;99.90;;;;;;5057231;28;20295;-84
2022/10/20 18:24:52;;;;;;;;;;;22.10;99.90;;;;;;5058189;28;19932;-84
2022/10/20 18:27:19;;;;;;;;;;;22.10;99.90;;;;;;5057192;28;19931;-84
2022/10/20 18:29:45;;;;;;;;;;;22.10;99.90;;;;;;5057165;28;19956;-84
2022/10/20 18:32:13;;;;;;;;;;;22.10;99.90;;;;;;5056735;28;19971;-85
2022/10/20 18:34:42;;;;;;;;;;;22.10;99.90;;;;;;5057688;28;20015;-85
2022/10/20 18:37:09;;;;;;;;;;;22.10;99.90;;;;;;5056987;28;19940;-85
2022/10/20 18:39:35;;;;;;;;;;;22.10;99.90;;;;;;5057301;28;19929;-85
2022/10/20 18:42:02;;;;;;;;;;;22.10;99.90;;;;;;5057036;28;19952;-84
2022/10/20 18:44:29;;;;;;;;;;;22.10;99.90;;;;;;5060173;28;19925;-84
2022/10/20 18:46:57;;;;;;;;;;;22.10;99.90;;;;;;5054526;28;20031;-85
2022/10/20 18:49:25;;;;;;;;;;;22.10;99.90;;;;;;5054334;28;19979;-83
2022/10/20 18:51:51;;;;;;;;;;;22.10;99.90;;;;;;5054816;28;19931;-83
2022/10/20 18:54:19;;;;;;;;;;;22.10;99.90;;;;;;5054828;28;20003;-83
2022/10/20 18:56:45;;;;;;;;;;;22.10;99.90;;;;;;5053702;28;19928;-86
2022/10/20 18:59:15;;;;;;;;;;;22.10;99.90;;;;;;5054357;28;19988;-83
2022/10/20 19:01:41;;;;;;;;;;;22.10;99.90;;;;;;5058587;28;19931;-85
2022/10/20 19:04:09;;;;;;;;;;;22.10;99.90;;;;;;5055691;28;19932;-86
2022/10/20 19:06:38;;;;;;;;;;;22.10;99.90;;;;;;5054526;28;20019;-84
2022/10/20 19:09:05;;;;;;;;;;;22.10;99.90;;;;;;5054574;28;19925;-84
2022/10/20 19:11:33;;;;;;;;;;;22.10;99.90;;;;;;5054961;28;20360;-84
2022/10/20 19:14:00;;;;;;;;;;;22.10;99.90;;;;;;5055646;28;20020;-84
2022/10/20 19:16:28;;;;;;;;;;;22.10;99.90;;;;;;5055026;28;20031;-83
2022/10/20 19:18:55;;;;;;;;;;;22.10;99.90;;;;;;5058805;28;19979;-83
2022/10/20 19:21:23;;;;;;;;;;;22.10;99.90;;;;;;5064247;28;19972;-84
2022/10/20 19:23:52;;;;;;;;;;;22.10;99.90;;;;;;5063062;28;19964;-83
2022/10/20 19:26:19;;;;;;;;;;;22.10;99.90;;;;;;5065268;28;19975;-83
2022/10/20 19:28:47;;;;;;;;;;;22.10;99.90;;;;;;5068369;28;19980;-85
2022/10/20 19:31:16;;;;;;;;;;;22.10;99.90;;;;;;5068032;28;19960;-83
2022/10/20 19:33:42;;;;;;;;;;;22.10;99.90;;;;;;5067603;28;20356;-82
2022/10/20 19:36:09;;;;;;;;;;;22.10;99.90;;;;;;5067237;28;19964;-82
2022/10/20 19:38:36;;;;;;;;;;;22.10;99.90;;;;;;5068468;28;19971;-82
2022/10/20 19:41:04;;;;;;;;;;;22.10;99.90;;;;;;5066780;28;20343;-82
2022/10/20 19:43:30;;;;;;;;;;;22.10;99.90;;;;;;5068859;28;19964;-82
2022/10/20 19:45:58;;;;;;;;;;;22.10;99.90;;;;;;5069169;28;19976;-82
2022/10/20 19:48:24;;;;;;;;;;;22.10;99.90;;;;;;5066070;28;19984;-82
2022/10/20 19:50:52;;;;;;;;;;;22.10;99.90;;;;;;5066768;28;19932;-82
2022/10/20 19:53:19;;;;;;;;;;;22.10;99.90;;;;;;5066902;28;19925;-82
2022/10/20 19:55:46;;;;;;;;;;;22.10;99.90;;;;;;5064454;28;19983;-83
2022/10/20 19:58:14;;;;;;;;;;;22.00;99.90;;;;;;5065343;28;19924;-83
2022/10/20 20:00:42;;;;;;;;;;;22.10;99.90;;;;;;5063888;28;19992;-83
2022/10/20 20:03:09;;;;;;;;;;;22.10;99.90;;;;;;5065278;28;19925;-83
2022/10/20 20:05:35;;;;;;;;;;;22.00;99.90;;;;;;5067203;28;19971;-83
2022/10/20 20:08:02;;;;;;;;;;;22.10;99.90;;;;;;5065619;28;20419;-83
2022/10/20 20:10:29;;;;;;;;;;;22.00;99.90;;;;;;5064068;28;20019;-83
2022/10/20 20:12:55;;;;;;;;;;;22.00;99.90;;;;;;5063009;28;19976;-83
2022/10/20 20:15:24;;;;;;;;;;;22.00;99.90;;;;;;5065166;28;19975;-83
2022/10/20 20:17:50;;;;;;;;;;;22.00;99.90;;;;;;5064146;28;20388;-82
2022/10/20 20:20:17;;;;;;;;;;;22.00;99.90;;;;;;5066191;28;19925;-82
2022/10/20 20:22:44;;;;;;;;;;;22.10;99.90;;;;;;5067047;28;19932;-83
2022/10/20 20:25:10;;;;;;;;;;;22.00;99.90;;;;;;5065934;28;19925;-83
2022/10/20 20:27:37;;;;;;;;;;;22.00;99.90;;;;;;5065400;28;19967;-82
2022/10/20 20:30:04;;;;;;;;;;;22.00;99.90;;;;;;5070420;28;20388;-83
2022/10/20 20:32:33;;;;;;;;;;;22.00;99.90;;;;;;5071178;28;19925;-83
2022/10/20 20:35:00;;;;;;;;;;;22.00;99.90;;;;;;5069481;28;19929;-84
2022/10/20 20:37:27;;;;;;;;;;;22.00;99.90;;;;;;5069069;28;19931;-84
2022/10/20 20:39:53;;;;;;;;;;;22.00;99.90;;;;;;5065974;28;20450;-84
2022/10/20 20:42:20;;;;;;;;;;;22.00;99.90;;;;;;5066874;28;19909;-84
2022/10/20 20:44:47;;;;;;;;;;;22.00;99.90;;;;;;5068977;28;19925;-84
2022/10/20 20:47:13;;;;;;;;;;;22.00;99.90;;;;;;5069320;28;19936;-84
2022/10/20 20:49:41;;;;;;;;;;;22.00;99.90;;;;;;5067005;28;19924;-84
2022/10/20 20:52:08;;;;;;;;;;;22.00;99.90;;;;;;5067533;28;19964;-84
2022/10/20 20:54:35;;;;;;;;;;;22.00;99.90;;;;;;5064847;28;19971;-84
2022/10/20 20:57:02;;;;;;;;;;;22.00;99.90;;;;;;5065001;28;20372;-84
2022/10/20 20:59:28;;;;;;;;;;;22.00;99.90;;;;;;5067643;28;20338;-83
2022/10/20 21:01:55;;;;;;;;;;;22.00;99.90;;;;;;5065671;28;20008;-84
2022/10/20 21:04:22;;;;;;;;;;;22.00;99.90;;;;;;5067261;28;19925;-84
2022/10/20 21:06:51;;;;;;;;;;;22.00;99.90;;;;;;5065432;28;19924;-84
2022/10/20 21:09:18;;;;;;;;;;;22.00;99.90;;;;;;5066970;28;19988;-84
2022/10/20 21:11:46;;;;;;;;;;;22.00;99.90;;;;;;5066400;28;19956;-84
2022/10/20 21:14:13;;;;;;;;;;;22.00;99.90;;;;;;5065772;28;20023;-84
2022/10/20 21:16:39;;;;;;;;;;;22.00;99.90;;;;;;5066657;28;20324;-86
2022/10/20 21:19:08;;;;;;;;;;;22.00;99.90;;;;;;5065494;28;19929;-84
2022/10/20 21:21:36;;;;;;;;;;;22.00;99.90;;;;;;5063263;28;19924;-84
2022/10/20 21:24:04;;;;;;;;;;;22.00;99.90;;;;;;5063733;28;19968;-84
2022/10/20 21:26:31;;;;;;;;;;;22.00;99.90;;;;;;5063080;28;19955;-83
2022/10/20 21:28:58;;;;;;;;;;;22.00;99.90;;;;;;5063157;28;19925;-84
2022/10/20 21:31:26;;;;;;;;;;;22.00;99.90;;;;;;5064851;28;19925;-84
2022/10/20 21:33:53;;;;;;;;;;;22.00;99.90;;;;;;5065615;28;19959;-85
2022/10/20 21:36:21;;;;;;;;;;;22.00;99.90;;;;;;5065908;28;19956;-85
2022/10/20 21:38:48;;;;;;;;;;;22.00;99.90;;;;;;5064856;28;19964;-84
2022/10/20 21:41:17;;;;;;;;;;;22.00;99.90;;;;;;5064891;28;19947;-85
2022/10/20 21:43:44;;;;;;;;;;;22.00;99.90;;;;;;5063038;28;20396;-85
2022/10/20 21:46:12;;;;;;;;;;;22.00;99.90;;;;;;5062315;28;19925;-85
2022/10/20 21:48:38;;;;;;;;;;;22.00;99.90;;;;;;5063728;28;19924;-84
2022/10/20 21:51:06;;;;;;;;;;;22.00;99.90;;;;;;5065460;28;19979;-84
2022/10/20 21:53:32;;;;;;;;;;;22.00;99.90;;;;;;5063471;28;19967;-84
2022/10/20 21:55:59;;;;;;;;;;;22.00;99.90;;;;;;5064198;28;19925;-84
2022/10/20 21:58:27;;;;;;;;;;;22.00;99.90;;;;;;5064718;28;19924;-85
2022/10/20 22:00:55;;;;;;;;;;;22.00;99.90;;;;;;5062687;28;20424;-85
2022/10/20 22:03:22;;;;;;;;;;;22.00;99.90;;;;;;5062791;28;19925;-84
2022/10/20 22:05:49;;;;;;;;;;;22.00;99.90;;;;;;5065063;28;19924;-84
2022/10/20 22:08:16;;;;;;;;;;;22.00;99.90;;;;;;5063833;28;19967;-84
